createdAt,value
2018-04-02T00:00:20.965Z,49.35
2018-04-02T00:02:46.905Z,49.13
2018-04-02T00:05:12.827Z,49.44
2018-04-02T00:07:38.812Z,50.01
2018-04-02T00:10:04.734Z,49.11
2018-04-02T00:12:30.681Z,48.99
2018-04-02T00:14:56.599Z,49.98
2018-04-02T00:17:22.519Z,50.19
2018-04-02T00:19:48.457Z,49.67
2018-04-02T00:22:14.380Z,49.96
2018-04-02T00:24:40.321Z,50.33
2018-04-02T00:27:06.269Z,49.53
2018-04-02T00:29:32.387Z,50.20
2018-04-02T00:31:58.325Z,50.26
2018-04-02T00:34:24.241Z,50.31
2018-04-02T00:36:50.170Z,49.99
2018-04-02T00:39:16.097Z,49.91
2018-04-02T00:41:42.044Z,49.46
2018-04-02T00:44:07.965Z,49.30
2018-04-02T00:46:33.933Z,48.95
2018-04-02T00:48:59.875Z,49.28
2018-04-02T00:51:25.836Z,48.93
2018-04-02T00:53:51.763Z,49.21
2018-04-02T00:56:17.694Z,50.02
2018-04-02T00:58:43.621Z,48.91
2018-04-02T01:01:09.546Z,49.16
2018-04-02T01:03:35.523Z,49.88
2018-04-02T01:06:01.483Z,49.94
2018-04-02T01:08:27.437Z,49.51
2018-04-02T01:10:53.354Z,49.35
2018-04-02T01:13:19.325Z,48.85
2018-04-02T01:15:45.293Z,49.72
2018-04-02T01:18:11.266Z,48.86
2018-04-02T01:20:37.206Z,49.61
2018-04-02T01:23:03.308Z,49.28
2018-04-02T01:25:29.250Z,49.78
2018-04-02T01:27:55.172Z,49.50
2018-04-02T01:30:21.094Z,50.05
2018-04-02T01:32:47.090Z,48.93
2018-04-02T01:35:13.017Z,49.06
2018-04-02T01:37:38.951Z,49.96
2018-04-02T01:40:05.211Z,50.43
2018-04-02T01:42:31.142Z,50.43
2018-04-02T01:44:57.067Z,50.90
2018-04-02T01:47:22.989Z,50.83
2018-04-02T01:49:48.908Z,51.00
2018-04-02T01:52:14.867Z,50.56
2018-04-02T01:54:40.830Z,50.46
2018-04-02T01:57:06.810Z,50.03
2018-04-02T01:59:32.754Z,49.85
2018-04-02T02:01:58.726Z,49.22
2018-04-02T02:04:24.691Z,49.74
2018-04-02T02:06:50.906Z,50.22
2018-04-02T02:09:16.844Z,50.37
2018-04-02T02:11:42.782Z,49.76
2018-04-02T02:14:08.726Z,49.94
2018-04-02T02:16:34.654Z,50.16
2018-04-02T02:19:00.602Z,50.70
2018-04-02T02:21:26.526Z,50.08
2018-04-02T02:23:52.494Z,50.43
2018-04-02T02:26:18.438Z,51.12
2018-04-02T02:28:44.402Z,50.96
2018-04-02T02:31:10.335Z,50.73
2018-04-02T02:33:36.306Z,50.40
2018-04-02T02:36:02.257Z,50.94
2018-04-02T02:38:28.520Z,50.97
2018-04-02T02:40:54.440Z,50.77
2018-04-02T02:43:20.388Z,50.90
2018-04-02T02:45:46.306Z,51.77
2018-04-02T02:48:12.250Z,51.69
2018-04-02T02:50:38.190Z,51.93
2018-04-02T02:53:04.124Z,51.68
2018-04-02T02:55:30.089Z,51.79
2018-04-02T02:57:56.025Z,52.19
2018-04-02T03:00:21.980Z,52.52
2018-04-02T03:02:47.925Z,52.62
2018-04-02T03:05:13.900Z,51.74
2018-04-02T03:07:39.823Z,52.81
2018-04-02T03:10:05.734Z,52.62
2018-04-02T03:12:31.654Z,52.45
2018-04-02T03:14:57.632Z,52.54
2018-04-02T03:17:23.574Z,52.38
2018-04-02T03:19:49.713Z,52.72
2018-04-02T03:22:15.663Z,52.76
2018-04-02T03:24:41.585Z,52.52
2018-04-02T03:27:07.521Z,52.36
2018-04-02T03:29:33.450Z,52.24
2018-04-02T03:31:59.382Z,52.41
2018-04-02T03:34:25.303Z,52.03
2018-04-02T03:36:51.236Z,51.73
2018-04-02T03:39:17.184Z,52.04
2018-04-02T03:41:43.127Z,52.69
2018-04-02T03:44:09.046Z,52.83
2018-04-02T03:46:34.984Z,52.69
2018-04-02T03:49:00.927Z,52.90
2018-04-02T03:51:26.858Z,52.82
2018-04-02T03:53:52.812Z,53.32
2018-04-02T03:56:19.053Z,53.93
2018-04-02T03:58:45.025Z,53.82
2018-04-02T04:01:10.968Z,54.09
2018-04-02T04:03:36.909Z,53.51
2018-04-02T04:06:02.839Z,53.68
2018-04-02T04:08:29.050Z,53.47
2018-04-02T04:10:55.017Z,53.26
2018-04-02T04:13:20.979Z,53.23
2018-04-02T04:15:46.902Z,52.94
2018-04-02T04:18:12.862Z,53.61
2018-04-02T04:20:38.803Z,53.21
2018-04-02T04:23:04.747Z,53.92
2018-04-02T04:25:30.681Z,53.51
2018-04-02T04:27:56.618Z,53.76
2018-04-02T04:30:22.579Z,54.57
2018-04-02T04:32:48.527Z,54.30
2018-04-02T04:35:14.474Z,54.33
2018-04-02T04:37:40.725Z,54.71
2018-04-02T04:40:06.667Z,54.73
2018-04-02T04:42:32.609Z,54.43
2018-04-02T04:44:58.553Z,54.95
2018-04-02T04:47:24.506Z,55.25
2018-04-02T04:49:50.435Z,54.48
2018-04-02T04:52:16.396Z,55.24
2018-04-02T04:54:42.391Z,55.28
2018-04-02T04:57:08.327Z,55.07
2018-04-02T04:59:34.366Z,54.63
2018-04-02T05:02:00.294Z,54.55
2018-04-02T05:04:26.220Z,54.92
2018-04-02T05:06:52.141Z,54.85
2018-04-02T05:09:18.085Z,55.40
2018-04-02T05:11:44.038Z,55.12
2018-04-02T05:14:09.985Z,54.68
2018-04-02T05:16:35.914Z,55.36
2018-04-02T05:19:01.859Z,55.02
2018-04-02T05:21:27.815Z,55.02
2018-04-02T05:23:53.735Z,55.17
2018-04-02T05:26:19.679Z,55.17
2018-04-02T05:28:45.835Z,55.04
2018-04-02T05:31:11.773Z,54.20
2018-04-02T05:33:37.705Z,53.75
2018-04-02T05:36:03.652Z,53.46
2018-04-02T05:38:29.717Z,53.70
2018-04-02T05:40:55.709Z,53.86
2018-04-02T05:43:21.595Z,53.94
2018-04-02T05:45:47.525Z,53.31
2018-04-02T05:48:13.447Z,52.79
2018-04-02T05:50:39.411Z,52.86
2018-04-02T05:53:05.337Z,53.23
2018-04-02T05:55:31.261Z,52.51
2018-04-02T05:57:57.307Z,52.75
2018-04-02T06:00:23.265Z,51.32
2018-04-02T06:02:49.211Z,51.37
2018-04-02T06:05:15.239Z,51.28
2018-04-02T06:07:41.143Z,50.89
2018-04-02T06:10:07.090Z,50.64
2018-04-02T06:12:33.035Z,50.07
2018-04-02T06:14:58.973Z,49.00
2018-04-02T06:17:24.935Z,48.80
2018-04-02T06:19:50.863Z,48.56
2018-04-02T06:22:16.798Z,49.12
2018-04-02T06:24:42.910Z,49.14
2018-04-02T06:27:08.868Z,49.65
2018-04-02T06:29:34.794Z,49.70
2018-04-02T06:32:00.761Z,49.90
2018-04-02T06:34:26.679Z,49.39
2018-04-02T06:36:52.632Z,50.14
2018-04-02T06:39:18.554Z,50.61
2018-04-02T06:41:44.522Z,52.06
2018-04-02T06:44:10.474Z,51.09
2018-04-02T06:46:36.447Z,51.06
2018-04-02T06:49:02.382Z,50.70
2018-04-02T06:51:28.343Z,50.54
2018-04-02T06:53:54.319Z,50.37
2018-04-02T06:56:20.250Z,50.35
2018-04-02T06:58:46.337Z,50.06
2018-04-02T07:01:12.276Z,50.76
2018-04-02T07:03:38.245Z,51.09
2018-04-02T07:06:04.230Z,49.90
2018-04-02T07:08:30.221Z,50.19
2018-04-02T07:10:56.260Z,49.86
2018-04-02T07:13:22.206Z,49.89
2018-04-02T07:15:48.148Z,49.29
2018-04-02T07:18:14.428Z,49.31
2018-04-02T07:20:40.388Z,49.16
2018-04-02T07:23:06.385Z,49.27
2018-04-02T07:25:32.286Z,48.63
2018-04-02T07:27:58.253Z,47.96
2018-04-02T07:30:24.178Z,47.21
2018-04-02T07:32:50.122Z,46.71
2018-04-02T07:35:16.075Z,46.42
2018-04-02T07:37:42.040Z,46.68
2018-04-02T07:40:07.973Z,45.84
2018-04-02T07:42:33.894Z,46.54
2018-04-02T07:44:59.882Z,46.38
2018-04-02T07:47:25.865Z,46.71
2018-04-02T07:49:51.851Z,47.02
2018-04-02T07:52:17.778Z,46.98
2018-04-02T07:54:43.768Z,47.01
2018-04-02T07:57:09.757Z,46.90
2018-04-02T07:59:35.708Z,47.11
2018-04-02T08:02:01.664Z,47.17
2018-04-02T08:04:27.647Z,46.84
2018-04-02T08:06:53.574Z,46.88
2018-04-02T08:09:19.522Z,47.06
2018-04-02T08:11:45.473Z,47.50
2018-04-02T08:14:11.408Z,47.65
2018-04-02T08:16:37.361Z,47.15
2018-04-02T08:19:03.314Z,46.70
2018-04-02T08:21:29.307Z,46.49
2018-04-02T08:23:55.238Z,46.61
2018-04-02T08:26:21.223Z,46.74
2018-04-02T08:28:47.161Z,46.80
2018-04-02T08:31:13.173Z,46.77
2018-04-02T08:33:39.095Z,46.68
2018-04-02T08:36:05.183Z,46.45
2018-04-02T08:38:31.132Z,46.68
2018-04-02T08:40:57.509Z,45.92
2018-04-02T08:43:23.467Z,46.00
2018-04-02T08:45:49.421Z,45.62
2018-04-02T08:48:15.370Z,46.06
2018-04-02T08:50:41.339Z,45.71
2018-04-02T08:53:07.308Z,45.49
2018-04-02T08:55:33.260Z,45.69
2018-04-02T08:57:59.254Z,45.06
2018-04-02T09:00:25.283Z,45.34
2018-04-02T09:02:51.211Z,45.47
2018-04-02T09:05:17.158Z,45.05
2018-04-02T09:07:43.171Z,44.63
2018-04-02T09:10:09.141Z,44.20
2018-04-02T09:12:35.101Z,44.93
2018-04-02T09:15:01.061Z,45.00
2018-04-02T09:17:26.990Z,44.67
2018-04-02T09:19:52.942Z,45.37
2018-04-02T09:22:18.868Z,45.52
2018-04-02T09:24:44.865Z,45.18
2018-04-02T09:27:10.797Z,44.93
2018-04-02T09:29:36.759Z,45.06
2018-04-02T09:32:02.725Z,45.58
2018-04-02T09:34:28.673Z,45.08
2018-04-02T09:36:54.626Z,45.03
2018-04-02T09:39:20.569Z,44.78
2018-04-02T09:41:46.512Z,44.66
2018-04-02T09:44:12.449Z,43.82
2018-04-02T09:46:38.377Z,44.26
2018-04-02T09:49:04.316Z,44.54
2018-04-02T09:51:30.254Z,43.73
2018-04-02T09:53:56.179Z,43.35
2018-04-02T09:56:22.196Z,43.57
2018-04-02T09:58:48.174Z,43.91
2018-04-02T10:01:14.094Z,43.46
2018-04-02T10:03:40.072Z,43.41
2018-04-02T10:06:06.031Z,43.24
2018-04-02T10:08:32.020Z,43.58
2018-04-02T10:10:57.967Z,43.35
2018-04-02T10:13:23.923Z,44.05
2018-04-02T10:15:49.910Z,44.04
2018-04-02T10:18:15.842Z,44.15
2018-04-02T10:20:41.801Z,44.80
2018-04-02T10:23:07.724Z,43.85
2018-04-02T10:25:33.652Z,43.41
2018-04-02T10:27:59.612Z,44.97
2018-04-02T10:30:25.564Z,43.89
2018-04-02T10:32:51.499Z,43.79
2018-04-02T10:35:17.473Z,44.31
2018-04-02T10:37:43.417Z,44.51
2018-04-02T10:40:09.401Z,43.64
2018-04-02T10:42:35.348Z,44.41
2018-04-02T10:45:01.328Z,43.27
2018-04-02T10:47:27.252Z,43.78
2018-04-02T10:49:53.198Z,44.10
2018-04-02T10:52:19.321Z,43.86
2018-04-02T10:54:45.332Z,43.52
2018-04-02T10:57:11.282Z,44.43
2018-04-02T10:59:37.325Z,44.11
2018-04-02T11:02:04.334Z,44.39
2018-04-02T11:04:30.291Z,43.95
2018-04-02T11:06:56.846Z,44.02
2018-04-02T11:09:22.827Z,44.47
2018-04-02T11:11:48.780Z,43.71
2018-04-02T11:14:14.722Z,43.00
2018-04-02T11:16:40.660Z,42.28
2018-04-02T11:19:06.582Z,43.49
2018-04-02T11:21:32.521Z,43.53
2018-04-02T11:23:58.479Z,41.89
2018-04-02T11:26:24.405Z,41.98
2018-04-02T11:28:50.503Z,41.10
2018-04-02T11:31:16.436Z,41.27
2018-04-02T11:33:42.361Z,41.80
2018-04-02T11:36:08.317Z,41.50
2018-04-02T11:38:34.269Z,41.35
2018-04-02T11:41:00.204Z,40.93
2018-04-02T11:43:26.157Z,41.09
2018-04-02T11:45:52.095Z,41.42
2018-04-02T11:48:18.049Z,41.13
2018-04-02T11:50:43.997Z,41.96
2018-04-02T11:53:09.948Z,42.15
2018-04-02T11:55:35.901Z,42.02
2018-04-02T11:58:01.846Z,41.89
2018-04-02T12:00:27.818Z,41.61
2018-04-02T12:02:53.754Z,41.20
2018-04-02T12:05:19.700Z,41.73
2018-04-02T12:07:45.637Z,41.58
2018-04-02T12:10:11.625Z,41.26
2018-04-02T12:12:37.579Z,41.71
2018-04-02T12:15:03.529Z,39.47
2018-04-02T12:17:29.798Z,38.47
2018-04-02T12:19:55.739Z,39.86
2018-04-02T12:22:21.685Z,40.26
2018-04-02T12:24:47.622Z,40.53
2018-04-02T12:27:13.550Z,39.79
2018-04-02T12:29:39.515Z,40.81
2018-04-02T12:32:05.491Z,40.30
2018-04-02T12:34:31.441Z,40.82
2018-04-02T12:36:57.391Z,39.15
2018-04-02T12:39:23.334Z,39.12
2018-04-02T12:41:49.287Z,39.30
2018-04-02T12:44:15.217Z,40.16
2018-04-02T12:46:41.216Z,40.61
2018-04-02T12:49:07.246Z,40.76
2018-04-02T12:51:33.183Z,40.51
2018-04-02T12:53:59.121Z,40.30
2018-04-02T12:56:25.055Z,40.15
2018-04-02T12:58:50.985Z,40.13
2018-04-02T13:01:16.928Z,40.07
2018-04-02T13:03:42.879Z,40.46
2018-04-02T13:06:08.830Z,40.59
2018-04-02T13:08:34.839Z,40.48
2018-04-02T13:11:00.799Z,40.80
2018-04-02T13:13:26.756Z,41.34
2018-04-02T13:15:52.702Z,41.58
2018-04-02T13:18:18.653Z,40.68
2018-04-02T13:20:44.659Z,41.10
2018-04-02T13:23:10.641Z,40.65
2018-04-02T13:25:36.586Z,40.28
2018-04-02T13:28:02.558Z,39.64
2018-04-02T13:30:28.490Z,41.57
2018-04-02T13:32:55.466Z,39.83
2018-04-02T13:35:21.388Z,38.20
2018-04-02T13:37:47.352Z,39.64
2018-04-02T13:40:13.294Z,40.18
2018-04-02T13:42:39.254Z,38.33
2018-04-02T13:45:05.218Z,36.85
2018-04-02T13:47:32.470Z,37.08
2018-04-02T13:49:58.426Z,37.21
2018-04-02T13:52:24.380Z,38.21
2018-04-02T13:54:50.410Z,38.31
2018-04-02T13:57:16.338Z,37.33
2018-04-02T13:59:42.299Z,37.39
2018-04-02T14:02:08.256Z,37.88
2018-04-02T14:04:34.195Z,37.75
2018-04-02T14:07:00.146Z,37.31
2018-04-02T14:09:26.094Z,37.25
2018-04-02T14:11:52.026Z,37.78
2018-04-02T14:14:17.962Z,37.42
2018-04-02T14:16:43.899Z,37.05
2018-04-02T14:19:09.847Z,37.31
2018-04-02T14:21:35.799Z,38.16
2018-04-02T14:24:01.736Z,37.38
2018-04-02T14:26:27.682Z,37.41
2018-04-02T14:28:53.655Z,37.05
2018-04-02T14:31:19.637Z,37.28
2018-04-02T14:33:45.563Z,37.63
2018-04-02T14:36:11.522Z,37.45
2018-04-02T14:38:37.467Z,37.40
2018-04-02T14:41:03.446Z,37.73
2018-04-02T14:43:29.385Z,38.22
2018-04-02T14:45:55.392Z,37.73
2018-04-02T14:48:21.416Z,36.91
2018-04-02T14:50:47.497Z,37.22
2018-04-02T14:53:13.790Z,37.81
2018-04-02T14:55:39.786Z,38.43
2018-04-02T14:58:05.776Z,37.09
2018-04-02T15:00:33.094Z,37.66
2018-04-02T15:02:59.061Z,37.51
2018-04-02T15:05:25.015Z,36.61
2018-04-02T15:07:50.956Z,36.98
2018-04-02T15:10:18.002Z,37.42
2018-04-02T15:12:43.959Z,36.74
2018-04-02T15:15:09.887Z,36.53
2018-04-02T15:17:35.855Z,37.13
2018-04-02T15:20:01.814Z,37.70
2018-04-02T15:22:27.744Z,37.42
2018-04-02T15:24:53.743Z,38.48
2018-04-02T15:27:19.693Z,38.96
2018-04-02T15:29:45.654Z,39.26
2018-04-02T15:32:11.635Z,39.07
2018-04-02T15:34:37.589Z,38.32
2018-04-02T15:37:03.589Z,39.18
2018-04-02T15:39:29.519Z,38.63
2018-04-02T15:41:55.663Z,37.77
2018-04-02T15:44:21.610Z,37.47
2018-04-02T15:46:47.551Z,37.04
2018-04-02T15:49:13.527Z,36.83
2018-04-02T15:51:39.484Z,36.09
2018-04-02T15:54:05.518Z,36.80
2018-04-02T15:56:31.476Z,37.95
2018-04-02T15:58:57.470Z,38.01
2018-04-02T16:01:23.414Z,37.04
2018-04-02T16:03:49.400Z,37.71
2018-04-02T16:06:15.388Z,38.35
2018-04-02T16:08:41.359Z,37.98
2018-04-02T16:11:07.341Z,38.23
2018-04-02T16:13:34.310Z,37.84
2018-04-02T16:16:00.307Z,37.63
2018-04-02T16:18:26.430Z,38.03
2018-04-02T16:20:52.385Z,38.41
2018-04-02T16:23:18.331Z,37.72
2018-04-02T16:25:44.279Z,38.36
2018-04-02T16:28:10.212Z,37.98
2018-04-02T16:30:36.220Z,36.95
2018-04-02T16:33:02.270Z,36.10
2018-04-02T16:35:28.342Z,37.28
2018-04-02T16:37:54.338Z,37.16
2018-04-02T16:40:20.310Z,36.97
2018-04-02T16:42:46.328Z,38.53
2018-04-02T16:45:12.283Z,37.96
2018-04-02T16:47:38.224Z,36.60
2018-04-02T16:50:04.180Z,36.76
2018-04-02T16:52:30.255Z,36.32
2018-04-02T17:01:42.116Z,37.39
2018-04-02T17:04:08.068Z,37.47
2018-04-02T17:06:34.048Z,37.66
2018-04-02T17:09:00.098Z,37.10
2018-04-02T17:11:26.059Z,37.34
2018-04-02T17:13:52.022Z,37.98
2018-04-02T17:16:17.966Z,38.23
2018-04-02T17:18:43.977Z,38.21
2018-04-02T17:21:09.919Z,38.12
2018-04-02T17:23:35.874Z,38.09
2018-04-02T17:26:01.800Z,38.28
2018-04-02T17:28:27.752Z,38.65
2018-04-02T17:30:53.672Z,38.49
2018-04-02T17:33:19.674Z,39.03
2018-04-02T17:35:45.634Z,39.19
2018-04-02T17:38:11.672Z,38.82
2018-04-02T17:40:37.634Z,38.64
2018-04-02T17:43:03.660Z,39.47
2018-04-02T17:45:29.578Z,39.65
2018-04-02T17:47:57.806Z,39.60
2018-04-02T17:50:23.918Z,41.17
2018-04-02T17:52:49.852Z,41.00
2018-04-02T17:55:15.891Z,41.34
2018-04-02T17:57:41.843Z,42.05
2018-04-02T18:00:08.019Z,41.88
2018-04-02T18:02:33.952Z,41.98
2018-04-02T18:05:01.912Z,41.92
2018-04-02T18:07:27.879Z,42.30
2018-04-02T18:09:53.847Z,42.46
2018-04-02T18:12:20.079Z,43.01
2018-04-02T18:14:46.009Z,42.81
2018-04-02T18:17:11.959Z,42.69
2018-04-02T18:19:37.970Z,42.32
2018-04-02T18:22:03.876Z,42.44
2018-04-02T18:24:30.001Z,42.69
2018-04-02T18:26:56.031Z,42.89
2018-04-02T18:29:22.056Z,43.13
2018-04-02T18:31:48.078Z,43.04
2018-04-02T18:34:14.101Z,42.30
2018-04-02T18:36:40.116Z,42.84
2018-04-02T18:39:06.143Z,42.06
2018-04-02T18:41:32.178Z,40.88
2018-04-02T18:43:58.183Z,41.58
2018-04-02T18:46:24.455Z,41.38
2018-04-02T18:48:50.446Z,40.99
2018-04-02T18:51:16.498Z,40.51
2018-04-02T18:53:43.546Z,42.45
2018-04-02T18:56:09.644Z,42.76
2018-04-02T18:58:35.734Z,41.93
2018-04-02T19:01:01.702Z,40.56
2018-04-02T19:03:27.730Z,40.02
2018-04-02T19:05:54.769Z,40.02
2018-04-02T19:08:20.801Z,39.41
2018-04-02T19:10:47.856Z,39.95
2018-04-02T19:13:13.971Z,40.97
2018-04-02T19:15:41.013Z,41.32
2018-04-02T19:18:07.095Z,42.56
2018-04-02T19:20:33.076Z,42.99
2018-04-02T19:22:59.401Z,43.52
2018-04-02T19:25:25.407Z,43.79
2018-04-02T19:27:52.371Z,43.63
2018-04-02T19:30:18.662Z,43.55
2018-04-02T19:32:44.647Z,43.72
2018-04-02T19:35:10.609Z,44.52
2018-04-02T19:37:36.557Z,44.48
2018-04-02T19:40:02.534Z,44.97
2018-04-02T19:42:28.501Z,45.33
2018-04-02T19:44:54.424Z,44.54
2018-04-02T19:47:20.355Z,45.03
2018-04-02T19:49:46.329Z,44.23
2018-04-02T19:52:12.305Z,44.44
2018-04-02T19:54:38.237Z,45.06
2018-04-02T19:57:04.178Z,45.84
2018-04-02T19:59:30.130Z,46.17
2018-04-02T20:01:56.286Z,46.42
2018-04-02T20:04:22.308Z,46.78
2018-04-02T20:06:48.266Z,45.76
2018-04-02T20:09:14.195Z,45.66
2018-04-02T20:11:40.134Z,45.70
2018-04-02T20:14:06.123Z,44.82
2018-04-02T20:16:32.062Z,44.57
2018-04-02T20:18:58.015Z,45.04
2018-04-02T20:21:23.994Z,44.75
2018-04-02T20:23:49.921Z,44.98
2018-04-02T20:26:16.312Z,45.26
2018-04-02T20:28:42.331Z,45.93
2018-04-02T20:31:08.253Z,46.81
2018-04-02T20:33:34.194Z,46.51
2018-04-02T20:36:00.134Z,45.92
2018-04-02T20:38:26.106Z,45.79
2018-04-02T20:40:52.056Z,45.99
2018-04-02T20:43:18.039Z,46.35
2018-04-02T20:45:44.034Z,46.16
2018-04-02T20:48:09.966Z,46.77
2018-04-02T20:50:35.918Z,45.84
2018-04-02T20:53:01.930Z,46.21
2018-04-02T20:55:27.870Z,46.02
2018-04-02T20:57:53.839Z,45.85
2018-04-02T21:00:19.766Z,46.93
2018-04-02T21:02:45.709Z,46.47
2018-04-02T21:05:11.640Z,45.71
2018-04-02T21:07:37.611Z,45.49
2018-04-02T21:10:03.544Z,45.52
2018-04-02T21:12:29.562Z,45.46
2018-04-02T21:14:55.522Z,45.09
2018-04-02T21:17:21.535Z,45.22
2018-04-02T21:19:47.818Z,45.21
2018-04-02T21:22:13.782Z,45.37
2018-04-02T21:24:39.718Z,45.69
2018-04-02T21:27:05.670Z,45.94
2018-04-02T21:29:31.615Z,46.04
2018-04-02T21:31:57.566Z,45.85
2018-04-02T21:34:23.513Z,45.57
2018-04-02T21:36:49.442Z,45.64
2018-04-02T21:39:15.409Z,45.64
2018-04-02T21:41:41.362Z,45.91
2018-04-02T21:44:07.306Z,46.05
2018-04-02T21:46:33.270Z,45.94
2018-04-02T21:48:59.232Z,46.13
2018-04-02T21:51:25.218Z,46.00
2018-04-02T21:53:51.128Z,46.33
2018-04-02T21:56:17.058Z,45.85
2018-04-02T21:58:42.986Z,46.55
2018-04-02T22:01:08.908Z,46.36
2018-04-02T22:03:34.871Z,46.46
2018-04-02T22:06:00.818Z,46.48
2018-04-02T22:08:26.743Z,46.44
2018-04-02T22:10:52.664Z,46.60
2018-04-02T22:13:18.614Z,46.90
2018-04-02T22:15:44.636Z,46.57
2018-04-02T22:18:10.598Z,46.70
2018-04-02T22:20:36.526Z,47.08
2018-04-02T22:23:02.469Z,47.21
2018-04-02T22:25:28.394Z,47.47
2018-04-02T22:27:54.318Z,47.10
2018-04-02T22:30:20.274Z,47.13
2018-04-02T22:32:46.225Z,47.12
2018-04-02T22:35:12.186Z,47.23
2018-04-02T22:37:38.131Z,47.05
2018-04-02T22:40:04.189Z,47.64
2018-04-02T22:42:30.153Z,47.25
2018-04-02T22:44:56.097Z,47.35
2018-04-02T22:47:22.055Z,47.78
2018-04-02T22:49:47.981Z,47.35
2018-04-02T22:52:13.960Z,47.53
2018-04-02T22:54:39.886Z,48.03
2018-04-02T22:57:05.836Z,48.52
2018-04-02T22:59:31.793Z,48.50
2018-04-02T23:01:57.718Z,48.51
2018-04-02T23:04:23.828Z,48.72
2018-04-02T23:06:49.752Z,48.28
2018-04-02T23:09:15.677Z,48.51
2018-04-02T23:11:41.770Z,48.59
2018-04-02T23:14:07.687Z,47.92
2018-04-02T23:16:33.620Z,48.07
2018-04-02T23:18:59.598Z,48.39
2018-04-02T23:21:25.524Z,48.53
2018-04-02T23:23:51.480Z,48.64
2018-04-02T23:26:17.424Z,48.82
2018-04-02T23:28:43.735Z,48.57
2018-04-02T23:31:09.713Z,48.64
2018-04-02T23:33:35.649Z,48.63
2018-04-02T23:36:01.621Z,48.78
2018-04-02T23:38:27.538Z,48.57
2018-04-02T23:40:53.487Z,48.66
2018-04-02T23:43:19.449Z,48.39
2018-04-02T23:45:45.403Z,48.12
2018-04-02T23:48:11.347Z,48.47
2018-04-02T23:50:37.333Z,47.92
2018-04-02T23:53:03.454Z,48.23
2018-04-02T23:55:29.395Z,47.87
2018-04-02T23:57:55.335Z,48.30
